Terminal Aerodrome Forecast
Issued by NWS

Home | Current Version | Previous Version | Text Only | Print | Product List | Glossary On
Versions: 1 2 3 4 5 6 7 8 9 10 11 12 13 14
000
FTUS46 KMTR 131700
TAFSNS
TAF
KSNS 131721Z 1318/1418 28004KT P6SM SCT011
     FM131900 29012KT P6SM SKC
     FM140300 29008KT P6SM FEW010 SCT250
     FM140500 29006KT P6SM OVC007=

USA.gov is the U.S. government's official web portal to all federal, state and local government web resources and services.